Time;durP1;ratioP1;P1;durP2;ratioP2;P2;SDS_P1;SDS_P2;PMS_P1;PMS_P2;Temp;Humidity;BMP_temperature;BMP_pressure;BME280_temperature;BME280_humidity;BME280_pressure;Samples;Min_cycle;Max_cycle;Signal;HPM_P1;HPM_P2
2022/03/20 00:00:47;;;;;;;27.67;18.13;;;1.50;99.90;;;;;;4961216;28;89391;-74
2022/03/20 00:03:14;;;;;;;30.48;19.15;;;1.40;99.90;;;;;;4960838;28;89002;-75
2022/03/20 00:05:42;;;;;;;29.48;18.60;;;1.40;99.90;;;;;;4960805;28;88948;-75
2022/03/20 00:08:12;;;;;;;27.92;18.55;;;1.30;99.90;;;;;;4943242;28;91549;-75
2022/03/20 00:10:48;;;;;;;30.80;18.73;;;1.30;99.90;;;;;;4960915;28;89005;-74
2022/03/20 00:13:17;;;;;;;27.83;18.33;;;1.30;99.90;;;;;;4960771;28;89004;-73
2022/03/20 00:15:44;;;;;;;28.65;18.52;;;1.30;99.90;;;;;;4960705;28;89300;-73
2022/03/20 00:18:11;;;;;;;29.13;18.55;;;1.30;99.90;;;;;;4960833;28;89078;-74
2022/03/20 00:20:48;;;;;;;27.80;18.08;;;1.20;99.90;;;;;;4960829;28;89432;-75
2022/03/20 00:23:16;;;;;;;27.48;16.88;;;1.20;99.90;;;;;;4960057;28;89135;-75
2022/03/20 00:25:44;;;;;;;27.90;16.98;;;1.20;99.90;;;;;;4960791;28;89001;-75
2022/03/20 00:28:14;;;;;;;27.42;16.88;;;1.20;99.90;;;;;;4960509;28;89859;-75
2022/03/20 05:00:58;;;;;;;30.33;18.40;;;3.20;99.90;;;;;;5735486;22;91139;-74
2022/03/20 05:03:24;;;;;;;30.92;19.63;;;3.20;99.90;;;;;;5001304;28;88884;-75
2022/03/20 05:05:49;;;;;;;29.10;18.75;;;3.20;99.90;;;;;;5001079;28;89022;-74
2022/03/20 05:08:15;;;;;;;28.73;19.40;;;3.10;99.90;;;;;;4997865;28;91337;-75
2022/03/20 05:13:25;;;;;;;30.98;19.23;;;3.10;99.90;;;;;;4999821;28;88945;-74
2022/03/20 05:15:55;;;;;;;30.17;19.48;;;3.00;99.90;;;;;;5000723;28;89161;-75
2022/03/20 05:18:21;;;;;;;31.30;19.77;;;3.10;99.90;;;;;;4999332;28;89278;-75
2022/03/20 05:20:47;;;;;;;30.70;20.00;;;3.00;99.90;;;;;;4999051;28;88946;-75
2022/03/20 05:23:13;;;;;;;32.33;20.88;;;3.00;99.90;;;;;;4999265;28;89086;-73
2022/03/20 05:25:39;;;;;;;32.65;19.73;;;3.00;99.90;;;;;;4999443;28;89177;-74
2022/03/20 05:28:05;;;;;;;34.47;21.00;;;2.90;99.90;;;;;;4998935;28;88876;-75
2022/03/20 05:30:31;;;;;;;29.55;19.92;;;3.00;99.90;;;;;;4998708;28;89190;-74
2022/03/20 05:32:57;;;;;;;31.58;19.75;;;2.90;99.90;;;;;;4999114;28;88867;-74
2022/03/20 05:35:23;;;;;;;30.27;20.17;;;2.90;99.90;;;;;;4998895;28;89032;-75
2022/03/20 05:37:49;;;;;;;33.88;21.17;;;2.90;99.90;;;;;;4996688;28;91425;-75
2022/03/20 05:40:15;;;;;;;30.48;21.00;;;2.90;99.90;;;;;;4996332;28;91753;-73
2022/03/20 05:42:42;;;;;;;30.27;19.88;;;2.90;99.90;;;;;;4998977;28;89057;-73
2022/03/20 05:45:11;;;;;;;30.88;19.63;;;3.00;99.90;;;;;;4999006;28;89192;-74
2022/03/20 05:47:40;;;;;;;31.70;19.05;;;3.10;99.90;;;;;;4998500;28;89526;-74
2022/03/20 05:50:08;;;;;;;30.70;19.30;;;3.20;99.90;;;;;;4998667;28;89439;-74
2022/03/20 05:52:33;;;;;;;30.48;19.88;;;3.30;99.90;;;;;;4998399;28;88847;-75
2022/03/20 05:54:59;;;;;;;30.45;19.63;;;3.30;99.90;;;;;;4998764;28;89217;-75
2022/03/20 06:00:16;;;;;;;32.22;21.20;;;3.50;99.90;;;;;;4998585;28;88885;-73
2022/03/20 06:02:45;;;;;;;31.60;19.75;;;3.60;99.90;;;;;;4997241;28;89145;-74
2022/03/20 06:05:11;;;;;;;31.50;19.45;;;3.70;99.90;;;;;;4998759;28;89211;-75
2022/03/20 06:07:46;;;;;;;30.90;19.42;;;3.80;99.90;;;;;;4998187;28;89808;-74
2022/03/20 06:10:21;;;;;;;31.63;19.73;;;4.00;99.90;;;;;;4998186;28;88862;-74
2022/03/20 06:12:47;;;;;;;32.05;20.02;;;4.20;99.90;;;;;;4998593;28;88851;-74
2022/03/20 06:15:15;;;;;;;29.25;20.13;;;4.40;99.90;;;;;;4998521;28;88898;-74
2022/03/20 06:17:46;;;;;;;29.23;19.00;;;4.50;99.90;;;;;;4998010;28;89387;-74
2022/03/20 06:20:15;;;;;;;27.88;19.65;;;4.60;99.90;;;;;;4998310;28;89148;-74
2022/03/20 06:22:42;;;;;;;28.35;19.15;;;4.70;99.90;;;;;;4998091;28;88992;-74
2022/03/20 06:25:09;;;;;;;27.45;18.98;;;4.80;99.90;;;;;;4998265;28;88841;-74
2022/03/20 06:27:52;;;;;;;28.00;19.52;;;4.90;99.90;;;;;;4998109;28;89744;-74
2022/03/20 06:30:19;;;;;;;34.05;20.70;;;5.00;99.90;;;;;;4997799;28;90519;-74
2022/03/20 06:32:46;;;;;;;33.35;21.05;;;5.00;99.90;;;;;;4998140;28;88981;-75
2022/03/20 06:35:14;;;;;;;37.90;21.70;;;5.10;99.90;;;;;;4998279;28;89257;-74
2022/03/20 06:37:43;;;;;;;35.05;20.85;;;5.20;99.90;;;;;;4996443;28;91639;-74
2022/03/20 06:40:09;;;;;;;32.92;22.15;;;5.40;99.90;;;;;;4996625;28;91956;-74
2022/03/20 06:42:36;;;;;;;31.15;19.67;;;5.50;99.90;;;;;;4997396;28;89178;-74
2022/03/20 06:45:04;;;;;;;29.75;19.42;;;5.60;99.90;;;;;;4998257;28;88784;-74
2022/03/20 06:47:32;;;;;;;32.85;20.83;;;5.70;99.90;;;;;;4996455;28;92186;-74
2022/03/20 06:49:59;;;;;;;34.90;21.38;;;5.70;99.90;;;;;;4999180;28;89315;-74
2022/03/20 06:52:24;;;;;;;33.38;20.95;;;5.80;99.90;;;;;;5001363;28;89053;-73
2022/03/20 06:54:53;;;;;;;33.17;20.95;;;5.90;99.90;;;;;;5001707;28;89037;-74
2022/03/20 06:57:20;;;;;;;34.45;21.77;;;6.10;99.30;;;;;;5001077;28;89771;-74
2022/03/20 06:59:46;;;;;;;28.55;20.55;;;6.20;99.00;;;;;;5000096;28;91136;-75
2022/03/20 07:02:11;;;;;;;33.20;20.98;;;6.30;98.30;;;;;;5000672;28;89439;-73
2022/03/20 07:04:41;;;;;;;31.30;20.88;;;6.40;99.00;;;;;;5001372;28;89253;-74
2022/03/20 07:07:06;;;;;;;31.95;21.92;;;6.40;98.80;;;;;;5000743;28;88870;-74
2022/03/20 07:09:34;;;;;;;32.05;20.75;;;6.50;98.60;;;;;;5010534;28;88799;-75
2022/03/20 07:12:00;;;;;;;31.95;21.90;;;6.50;98.20;;;;;;5023489;28;88170;-73
2022/03/20 07:14:25;;;;;;;32.13;21.75;;;6.40;99.30;;;;;;5011479;28;89775;-73
2022/03/20 07:16:52;;;;;;;34.35;22.63;;;6.40;98.30;;;;;;5000903;28;88988;-73
2022/03/20 07:19:17;;;;;;;31.23;21.40;;;6.40;98.80;;;;;;5000953;28;89206;-74
2022/03/20 07:21:43;;;;;;;31.83;21.65;;;6.40;99.10;;;;;;5001089;28;88842;-74
2022/03/20 07:24:09;;;;;;;33.17;22.23;;;6.40;98.80;;;;;;5001025;28;88741;-74
2022/03/20 07:29:30;;;;;;;33.22;21.83;;;6.60;98.40;;;;;;5001229;28;88964;-74
2022/03/20 07:32:01;;;;;;;33.13;21.55;;;6.70;98.30;;;;;;5000934;28;88850;-75
2022/03/20 07:34:26;;;;;;;29.95;21.48;;;6.80;98.20;;;;;;5001053;28;89017;-74
2022/03/20 07:36:52;;;;;;;29.55;20.25;;;6.80;98.70;;;;;;5000846;28;90290;-75
2022/03/20 07:39:18;;;;;;;31.33;20.83;;;6.90;98.30;;;;;;5000756;28;89316;-75
2022/03/20 07:41:43;;;;;;;32.70;21.45;;;7.00;98.30;;;;;;5000776;28;88892;-74
2022/03/20 07:44:12;;;;;;;30.80;20.85;;;7.10;97.80;;;;;;5000668;28;88939;-75
2022/03/20 07:46:40;;;;;;;33.65;22.17;;;7.20;97.30;;;;;;4999037;28;91618;-75
2022/03/20 07:49:07;;;;;;;30.35;20.67;;;7.30;97.10;;;;;;4997956;28;92843;-75
2022/03/20 07:51:34;;;;;;;32.13;21.20;;;7.40;97.10;;;;;;4997994;28;92551;-74
2022/03/20 07:54:00;;;;;;;33.40;21.45;;;7.60;96.90;;;;;;4999796;28;89248;-74
2022/03/20 07:56:28;;;;;;;31.02;21.92;;;7.70;96.60;;;;;;4999376;28;89758;-74
2022/03/20 07:58:54;;;;;;;31.95;21.50;;;7.90;95.50;;;;;;4999130;28;90197;-74
2022/03/20 08:01:21;;;;;;;33.72;22.17;;;8.00;95.70;;;;;;4996098;28;92457;-73
2022/03/20 08:03:46;;;;;;;29.77;20.27;;;8.20;95.10;;;;;;4999706;28;89385;-73
2022/03/20 08:06:12;;;;;;;31.10;20.73;;;8.30;94.40;;;;;;4999068;28;90878;-73
2022/03/20 08:08:39;;;;;;;32.85;21.75;;;8.40;94.40;;;;;;4999490;28;89554;-73
2022/03/20 08:11:06;;;;;;;30.02;20.50;;;8.60;93.40;;;;;;4998912;28;89673;-72
2022/03/20 08:13:35;;;;;;;32.85;21.92;;;8.70;93.00;;;;;;4999400;28;89280;-72
2022/03/20 08:16:01;;;;;;;30.20;19.90;;;8.80;92.30;;;;;;4997682;28;92553;-73
2022/03/20 08:18:27;;;;;;;30.80;20.63;;;8.90;92.10;;;;;;4998905;28;89959;-73
2022/03/20 08:20:53;;;;;;;32.65;21.60;;;9.10;92.40;;;;;;4998601;28;89241;-74
2022/03/20 08:23:18;;;;;;;31.83;20.88;;;9.20;91.00;;;;;;4997380;28;90331;-76
2022/03/20 08:25:44;;;;;;;32.17;20.98;;;9.40;91.00;;;;;;4997370;28;95897;-76
2022/03/20 08:28:11;;;;;;;31.33;22.10;;;9.60;90.40;;;;;;4997786;28;92044;-73
2022/03/20 08:30:38;;;;;;;29.38;21.13;;;9.80;90.80;;;;;;4997745;28;90702;-75
2022/03/20 08:33:04;;;;;;;30.05;21.30;;;10.10;90.20;;;;;;4999197;28;89289;-76
2022/03/20 08:35:29;;;;;;;29.17;20.45;;;10.50;89.70;;;;;;4998013;28;91017;-75
2022/03/20 08:37:55;;;;;;;29.70;21.33;;;11.10;88.10;;;;;;4998699;28;89965;-75
2022/03/20 08:40:22;;;;;;;31.58;21.33;;;11.50;85.20;;;;;;4992529;28;90083;-74
2022/03/20 08:42:52;;;;;;;27.92;20.35;;;11.70;85.30;;;;;;4992554;28;89404;-74
2022/03/20 08:45:20;;;;;;;29.08;21.02;;;12.10;86.90;;;;;;4985273;28;89541;-72
2022/03/20 08:47:46;;;;;;;32.05;21.65;;;12.60;83.30;;;;;;4994436;28;92717;-74
2022/03/20 08:50:13;;;;;;;27.35;20.58;;;12.60;81.40;;;;;;4985816;28;89983;-74
2022/03/20 08:52:39;;;;;;;31.92;20.80;;;12.40;81.10;;;;;;4997377;28;89342;-73
2022/03/20 08:55:10;;;;;;;29.88;21.17;;;12.50;80.30;;;;;;4986365;28;91346;-74
2022/03/20 08:57:41;;;;;;;29.63;20.42;;;12.70;78.00;;;;;;4989271;28;91939;-73
2022/03/20 09:00:09;;;;;;;31.60;20.88;;;13.20;76.30;;;;;;5001274;28;89859;-72
2022/03/20 09:02:34;;;;;;;27.30;20.75;;;13.40;81.30;;;;;;4998934;28;89439;-74
2022/03/20 09:05:00;;;;;;;29.98;20.73;;;13.40;76.70;;;;;;4985892;28;90242;-73
2022/03/20 09:07:26;;;;;;;27.45;20.73;;;13.50;77.30;;;;;;4991426;28;89237;-74
2022/03/20 09:09:51;;;;;;;29.75;20.73;;;13.70;78.10;;;;;;4980064;28;91062;-74
2022/03/20 09:12:17;;;;;;;30.77;21.48;;;13.70;75.50;;;;;;4995324;28;90145;-75
2022/03/20 09:14:45;;;;;;;28.25;21.13;;;13.80;75.10;;;;;;4981679;28;92193;-74
2022/03/20 09:19:57;;;;;;;29.23;20.92;;;13.20;75.80;;;;;;4987184;28;89338;-73
2022/03/20 09:22:26;;;;;;;31.45;22.05;;;13.00;76.40;;;;;;4994842;28;89468;-74
2022/03/20 09:24:52;;;;;;;30.23;20.80;;;12.90;79.40;;;;;;4992150;28;89107;-74
2022/03/20 09:27:18;;;;;;;29.98;20.48;;;12.80;78.20;;;;;;4997300;28;90315;-75
2022/03/20 09:29:44;;;;;;;29.17;21.77;;;12.90;77.10;;;;;;4983616;28;93024;-78
2022/03/20 09:32:09;;;;;;;30.02;21.45;;;12.80;77.30;;;;;;4989891;28;89303;-74
2022/03/20 09:34:35;;;;;;;30.65;21.40;;;12.80;76.90;;;;;;4993322;28;90093;-74
2022/03/20 09:37:01;;;;;;;30.42;21.02;;;12.80;76.80;;;;;;4993655;28;90920;-75
2022/03/20 09:39:26;;;;;;;30.02;21.02;;;12.80;79.00;;;;;;4989417;28;89604;-75
2022/03/20 09:41:55;;;;;;;31.73;21.85;;;12.80;76.90;;;;;;4986673;28;89227;-75
2022/03/20 09:44:24;;;;;;;27.88;20.52;;;12.80;77.30;;;;;;4992420;28;89984;-75
2022/03/20 09:46:50;;;;;;;27.45;20.27;;;12.80;78.20;;;;;;4992193;28;92164;-75
2022/03/20 09:49:17;;;;;;;27.90;20.50;;;12.80;79.40;;;;;;4988201;28;90822;-75
2022/03/20 09:51:43;;;;;;;30.10;20.88;;;12.90;75.20;;;;;;4987879;28;89933;-75
2022/03/20 09:54:13;;;;;;;28.30;20.67;;;12.90;76.90;;;;;;4978112;28;89630;-75
2022/03/20 09:56:42;;;;;;;29.30;20.45;;;13.10;77.10;;;;;;4976742;28;92796;-75
2022/03/20 09:59:09;;;;;;;28.95;20.30;;;13.10;76.30;;;;;;4961245;28;92018;-76
2022/03/20 10:01:36;;;;;;;29.70;20.48;;;13.20;75.80;;;;;;4976891;28;90177;-75
2022/03/20 10:04:13;;;;;;;29.52;20.73;;;13.40;75.80;;;;;;4977600;28;89932;-76
2022/03/20 10:06:40;;;;;;;27.25;20.08;;;13.60;73.80;;;;;;4975999;28;91649;-76
2022/03/20 10:09:13;;;;;;;27.73;20.02;;;13.80;72.70;;;;;;4983893;28;92770;-78
2022/03/20 10:11:54;;;;;;;28.70;20.20;;;13.90;72.00;;;;;;4996908;28;89343;-75
2022/03/20 10:14:26;;;;;;;28.58;18.95;;;13.90;72.70;;;;;;4991363;28;89542;-75
2022/03/20 10:17:09;;;;;;;30.08;20.17;;;14.10;73.60;;;;;;4975579;28;89728;-74
2022/03/20 10:19:35;;;;;;;28.02;19.55;;;14.50;71.50;;;;;;4985967;28;91214;-75
2022/03/20 10:22:04;;;;;;;29.10;19.17;;;14.60;71.30;;;;;;4996466;28;89291;-74
2022/03/20 10:24:40;;;;;;;27.00;18.92;;;15.00;70.60;;;;;;4996249;28;89426;-74
2022/03/20 10:27:08;;;;;;;28.95;21.15;;;15.00;68.60;;;;;;5015193;28;92137;-75
2022/03/20 10:29:36;;;;;;;27.20;19.85;;;15.00;71.90;;;;;;5015042;28;89549;-74
2022/03/20 10:32:09;;;;;;;28.88;20.58;;;15.10;69.10;;;;;;4997303;28;89291;-74
2022/03/20 10:34:55;;;;;;;28.77;19.73;;;15.00;69.40;;;;;;4996589;28;89833;-74
2022/03/20 10:37:42;;;;;;;29.38;19.92;;;15.20;71.30;;;;;;4995407;28;90725;-75
2022/03/20 10:40:12;;;;;;;29.40;19.20;;;15.20;69.90;;;;;;4996443;28;89740;-74
2022/03/20 10:43:14;;;;;;;26.73;19.65;;;15.20;69.20;;;;;;4995631;28;89373;-76
2022/03/20 10:46:05;;;;;;;27.92;19.20;;;15.20;71.60;;;;;;4998204;28;89182;-77
2022/03/20 10:48:35;;;;;;;29.90;19.65;;;15.10;71.60;;;;;;4998744;28;91969;-76
2022/03/20 10:51:01;;;;;;;27.55;18.73;;;15.00;73.00;;;;;;4998944;28;89228;-73
2022/03/20 10:53:27;;;;;;;28.25;18.67;;;15.00;75.00;;;;;;4995699;28;91848;-74
2022/03/20 10:56:17;;;;;;;25.73;18.98;;;15.00;72.80;;;;;;4996129;28;89618;-75
2022/03/20 10:58:43;;;;;;;29.08;18.75;;;15.10;73.00;;;;;;4995876;28;91279;-73
2022/03/20 11:01:09;;;;;;;27.88;19.27;;;14.90;76.30;;;;;;4993580;28;89847;-74
2022/03/20 11:03:39;;;;;;;25.42;18.42;;;14.90;72.20;;;;;;4977752;28;89825;-73
2022/03/20 11:06:09;;;;;;;25.95;18.33;;;14.90;73.30;;;;;;4976010;28;89621;-75
2022/03/20 11:08:37;;;;;;;26.30;18.65;;;14.90;73.30;;;;;;4985652;28;90055;-73
2022/03/20 11:11:04;;;;;;;28.70;18.88;;;14.90;73.00;;;;;;4996416;28;88831;-73
2022/03/20 11:13:32;;;;;;;29.75;20.50;;;14.90;76.10;;;;;;4996299;28;89385;-74
2022/03/20 11:16:05;;;;;;;27.17;19.30;;;14.70;73.60;;;;;;4997467;28;89449;-72
2022/03/20 11:18:43;;;;;;;30.75;18.52;;;14.60;74.80;;;;;;4995366;28;90237;-73
2022/03/20 11:21:10;;;;;;;28.27;18.95;;;14.70;77.70;;;;;;4995816;28;90701;-72
2022/03/20 11:23:36;;;;;;;31.17;19.45;;;14.90;75.30;;;;;;4995844;28;89665;-74
2022/03/20 11:26:05;;;;;;;27.25;19.05;;;14.90;74.20;;;;;;4985152;28;89498;-74
2022/03/20 11:28:45;;;;;;;27.55;18.27;;;14.70;73.90;;;;;;4987000;28;89995;-74
2022/03/20 11:31:12;;;;;;;27.73;19.15;;;14.60;74.20;;;;;;4987476;28;90136;-73
2022/03/20 11:33:38;;;;;;;27.33;18.98;;;14.60;75.80;;;;;;4987175;28;89553;-73
2022/03/20 11:36:04;;;;;;;27.95;18.48;;;14.50;75.80;;;;;;4978856;28;89931;-73
2022/03/20 11:38:31;;;;;;;28.30;19.15;;;14.80;76.10;;;;;;4991742;28;89344;-73
2022/03/20 11:41:07;;;;;;;26.75;19.15;;;15.10;76.90;;;;;;4992820;28;90124;-73
2022/03/20 11:43:34;;;;;;;28.63;18.70;;;15.40;74.10;;;;;;4994027;28;90377;-73
2022/03/20 11:46:11;;;;;;;26.23;19.00;;;15.40;75.00;;;;;;4985528;28;89140;-73
2022/03/20 11:48:37;;;;;;;26.90;18.38;;;15.20;77.00;;;;;;4996150;28;89317;-73
2022/03/20 11:51:03;;;;;;;27.83;18.88;;;15.20;79.00;;;;;;4990098;28;89345;-75
2022/03/20 11:53:30;;;;;;;28.02;18.20;;;15.10;79.70;;;;;;4998624;28;89239;-74
2022/03/20 11:55:56;;;;;;;23.55;17.35;;;15.50;76.20;;;;;;4988583;28;91108;-74
2022/03/20 11:58:24;;;;;;;26.63;18.77;;;15.60;78.10;;;;;;4988169;28;89355;-73
2022/03/20 12:01:06;;;;;;;28.23;18.15;;;15.50;74.20;;;;;;4988264;28;89330;-74
2022/03/20 12:03:53;;;;;;;28.80;19.33;;;15.50;78.00;;;;;;4992225;28;89392;-74
2022/03/20 12:06:33;;;;;;;28.77;18.65;;;15.20;76.40;;;;;;4988918;28;90640;-73
2022/03/20 12:09:10;;;;;;;28.88;18.45;;;15.20;76.00;;;;;;4993234;28;90898;-73
2022/03/20 12:11:51;;;;;;;27.13;18.85;;;15.30;77.00;;;;;;4988851;28;91138;-74
2022/03/20 12:14:39;;;;;;;28.88;19.15;;;15.30;77.50;;;;;;4993186;28;89336;-74
2022/03/20 12:17:07;;;;;;;24.85;18.27;;;15.30;76.60;;;;;;4991289;28;89208;-74
2022/03/20 12:19:48;;;;;;;24.73;16.95;;;15.50;76.90;;;;;;4981955;28;89315;-75
2022/03/20 12:22:19;;;;;;;26.65;17.33;;;15.50;76.30;;;;;;4994518;28;89251;-74
2022/03/20 12:25:00;;;;;;;26.23;17.23;;;15.60;77.50;;;;;;4989316;28;89194;-76
2022/03/20 12:27:25;;;;;;;26.63;17.20;;;15.50;75.90;;;;;;4994583;28;88977;-74
2022/03/20 12:30:17;;;;;;;25.90;17.13;;;15.40;75.80;;;;;;4986126;28;89391;-74
2022/03/20 12:32:59;;;;;;;26.95;17.55;;;15.40;77.00;;;;;;4986082;28;92606;-73
2022/03/20 12:35:44;;;;;;;27.35;17.23;;;15.50;75.30;;;;;;4991288;28;90295;-74
2022/03/20 12:38:36;;;;;;;25.92;15.43;;;15.60;76.60;;;;;;4980616;28;89693;-73
2022/03/20 12:41:19;;;;;;;23.60;17.00;;;15.70;77.60;;;;;;4986399;28;89740;-74
2022/03/20 12:44:08;;;;;;;24.00;15.90;;;16.00;75.50;;;;;;4991301;28;90781;-74
2022/03/20 12:46:42;;;;;;;23.63;14.57;;;16.20;74.50;;;;;;4981182;28;89230;-74
2022/03/20 12:49:15;;;;;;;22.63;14.82;;;16.40;74.90;;;;;;4991686;28;90715;-75
2022/03/20 12:51:42;;;;;;;23.48;15.88;;;16.90;73.50;;;;;;4991547;28;89476;-73
2022/03/20 12:54:15;;;;;;;20.77;14.20;;;17.30;73.20;;;;;;4988809;28;89853;-74
2022/03/20 12:56:54;;;;;;;23.20;15.30;;;17.90;72.30;;;;;;4996206;28;89362;-74
2022/03/20 12:59:21;;;;;;;18.33;13.02;;;17.70;69.50;;;;;;4990762;28;89460;-75
2022/03/20 13:01:46;;;;;;;21.30;13.55;;;17.60;71.80;;;;;;4995133;28;90113;-73
2022/03/20 13:04:18;;;;;;;22.90;13.70;;;17.30;70.20;;;;;;4983381;28;90866;-75
2022/03/20 13:06:46;;;;;;;20.73;13.75;;;17.30;70.30;;;;;;4990895;28;89268;-74
2022/03/20 13:09:13;;;;;;;18.25;12.73;;;17.70;69.40;;;;;;4988226;28;90281;-74
2022/03/20 13:11:48;;;;;;;18.40;12.95;;;18.10;69.70;;;;;;4990572;28;89694;-75
2022/03/20 13:14:15;;;;;;;20.17;12.48;;;18.30;68.90;;;;;;4986730;28;89775;-75
2022/03/20 13:16:55;;;;;;;21.73;13.80;;;18.30;69.70;;;;;;4990514;28;89353;-75
2022/03/20 13:19:29;;;;;;;21.05;13.40;;;18.20;69.80;;;;;;4989997;28;89652;-74
2022/03/20 13:21:55;;;;;;;21.25;14.52;;;18.10;67.90;;;;;;4991294;28;89861;-75
2022/03/20 13:24:29;;;;;;;22.90;13.65;;;18.10;70.50;;;;;;4986784;28;92310;-76
2022/03/20 13:26:57;;;;;;;21.73;13.90;;;18.10;68.60;;;;;;4990460;28;90092;-74
2022/03/20 13:29:23;;;;;;;20.00;13.27;;;17.90;68.80;;;;;;4987012;28;89934;-75
2022/03/20 13:32:03;;;;;;;19.33;13.27;;;18.00;68.60;;;;;;4987259;28;89409;-76
2022/03/20 13:34:30;;;;;;;22.83;14.57;;;18.10;69.60;;;;;;4985532;28;89486;-74
2022/03/20 13:37:04;;;;;;;22.77;12.77;;;18.40;68.20;;;;;;4993826;28;89163;-76
2022/03/20 13:39:30;;;;;;;20.17;12.88;;;18.60;67.80;;;;;;4991410;28;89957;-76
2022/03/20 13:41:55;;;;;;;22.67;12.68;;;18.50;66.00;;;;;;4989911;28;89147;-74
2022/03/20 13:44:21;;;;;;;17.63;12.40;;;18.60;68.20;;;;;;5006130;28;89073;-75
2022/03/20 13:46:46;;;;;;;22.75;13.70;;;18.60;66.10;;;;;;4982117;28;89176;-75
2022/03/20 13:49:13;;;;;;;18.20;11.60;;;18.80;66.20;;;;;;4988267;28;89954;-74
2022/03/20 13:51:42;;;;;;;16.25;11.13;;;18.80;65.10;;;;;;4986925;28;90394;-76
2022/03/20 13:54:17;;;;;;;18.23;10.52;;;18.80;65.80;;;;;;4977897;28;91138;-74
2022/03/20 13:57:03;;;;;;;17.00;10.55;;;18.90;65.60;;;;;;4992778;28;89247;-74
2022/03/20 13:59:31;;;;;;;16.00;10.30;;;18.90;66.30;;;;;;4985680;28;89921;-74
2022/03/20 14:01:57;;;;;;;19.45;10.40;;;19.10;63.30;;;;;;4985696;28;89418;-75
2022/03/20 14:04:24;;;;;;;15.35;8.95;;;19.10;63.80;;;;;;4987315;28;89858;-75
2022/03/20 14:07:00;;;;;;;19.30;10.43;;;19.00;61.40;;;;;;4991707;28;89219;-74
2022/03/20 14:09:38;;;;;;;21.40;10.15;;;19.40;63.70;;;;;;4997037;28;88925;-74
2022/03/20 14:12:29;;;;;;;15.65;10.00;;;19.30;62.70;;;;;;4997549;28;89992;-74
2022/03/20 14:15:11;;;;;;;18.33;10.35;;;19.10;64.90;;;;;;4995573;28;91931;-74
2022/03/20 14:17:46;;;;;;;16.65;10.48;;;19.00;63.50;;;;;;4985204;28;90139;-75
2022/03/20 14:20:22;;;;;;;20.60;10.45;;;19.10;65.40;;;;;;4978196;28;89825;-75
2022/03/20 14:22:57;;;;;;;16.67;10.02;;;19.20;67.20;;;;;;4977482;28;90465;-75
2022/03/20 14:25:52;;;;;;;17.55;11.10;;;19.60;62.80;;;;;;4995910;28;89333;-74
2022/03/20 14:28:25;;;;;;;16.83;10.40;;;20.70;62.60;;;;;;4995916;28;89241;-74
2022/03/20 14:39:27;;;;;;;15.70;10.13;;;22.40;53.50;;;;;;4997421;28;89400;-76
2022/03/20 14:41:53;;;;;;;15.05;9.75;;;23.80;52.70;;;;;;4996654;28;89636;-76
2022/03/20 14:44:27;;;;;;;17.55;9.65;;;23.20;54.40;;;;;;4997287;28;90389;-75
2022/03/20 14:47:05;;;;;;;13.68;9.57;;;23.30;53.40;;;;;;4995983;28;92888;-76
2022/03/20 14:49:34;;;;;;;16.17;10.00;;;24.10;51.40;;;;;;4996400;28;89555;-76
2022/03/20 14:52:01;;;;;;;16.55;10.38;;;23.60;51.20;;;;;;4993597;28;92663;-73
2022/03/20 14:54:26;;;;;;;13.48;10.18;;;23.10;52.50;;;;;;4986434;28;90408;-74
2022/03/20 14:56:56;;;;;;;15.68;10.35;;;23.80;51.30;;;;;;4984462;28;89763;-72
2022/03/20 14:59:21;;;;;;;16.40;10.30;;;24.50;50.00;;;;;;4989378;28;89242;-73
2022/03/20 15:01:47;;;;;;;15.23;9.57;;;25.20;49.20;;;;;;4995881;28;89703;-73
2022/03/20 15:04:14;;;;;;;15.20;10.00;;;24.20;49.80;;;;;;4995553;28;89783;-78
2022/03/20 15:06:46;;;;;;;14.70;10.35;;;24.60;49.20;;;;;;4992540;28;89166;-72
2022/03/20 15:11:56;;;;;;;15.77;9.77;;;24.20;49.00;;;;;;4979134;28;89304;-74
2022/03/20 15:14:23;;;;;;;15.15;10.70;;;24.50;48.80;;;;;;4994250;28;92840;-74
2022/03/20 15:16:52;;;;;;;15.38;11.38;;;24.30;49.30;;;;;;5000171;28;88968;-74
2022/03/20 15:19:18;;;;;;;17.70;13.25;;;23.60;49.30;;;;;;5000068;28;89491;-76
2022/03/20 15:21:44;;;;;;;19.30;14.30;;;23.20;48.70;;;;;;4999420;28;90141;-74
2022/03/20 15:24:10;;;;;;;23.23;14.80;;;22.90;50.40;;;;;;4998500;28;92698;-76
2022/03/20 15:26:45;;;;;;;18.90;15.23;;;22.40;51.90;;;;;;4999926;28;89686;-75
2022/03/20 15:29:14;;;;;;;20.50;15.93;;;22.80;52.30;;;;;;4999805;28;89210;-75
2022/03/20 15:31:44;;;;;;;19.67;15.90;;;22.60;50.90;;;;;;4999369;28;89129;-75
2022/03/20 15:34:12;;;;;;;23.67;17.08;;;23.00;49.20;;;;;;4999308;28;91164;-73
2022/03/20 15:36:39;;;;;;;23.33;16.95;;;22.60;49.80;;;;;;4998917;28;90670;-74
2022/03/20 15:39:13;;;;;;;25.05;17.25;;;22.70;48.80;;;;;;4999848;28;89147;-74
2022/03/20 15:41:40;;;;;;;25.45;17.48;;;22.20;49.50;;;;;;4999100;28;89212;-74
2022/03/20 15:44:08;;;;;;;22.52;16.90;;;22.30;49.40;;;;;;4999270;28;89833;-75
2022/03/20 15:46:34;;;;;;;21.98;16.83;;;22.80;49.00;;;;;;4999220;28;89231;-74
2022/03/20 15:49:06;;;;;;;24.05;18.08;;;22.30;49.30;;;;;;4997969;28;89358;-74
2022/03/20 15:51:33;;;;;;;24.30;17.48;;;22.40;48.80;;;;;;4997752;28;90739;-74
2022/03/20 15:53:59;;;;;;;22.60;17.73;;;22.10;49.00;;;;;;4997712;28;91152;-74
2022/03/20 15:56:25;;;;;;;23.02;17.40;;;22.00;48.70;;;;;;4999217;28;89608;-74
2022/03/20 15:58:51;;;;;;;23.80;17.45;;;21.90;50.10;;;;;;4998909;28;90259;-73
2022/03/20 16:01:22;;;;;;;24.10;17.90;;;21.60;49.50;;;;;;4998359;28;89763;-74
2022/03/20 16:03:49;;;;;;;22.52;17.15;;;21.20;50.90;;;;;;4999250;28;89911;-74
2022/03/20 16:06:14;;;;;;;25.70;17.75;;;21.40;50.50;;;;;;4999063;28;90274;-74
2022/03/20 16:08:40;;;;;;;21.98;17.23;;;20.90;49.60;;;;;;4998616;28;89359;-75
2022/03/20 16:11:06;;;;;;;24.00;16.80;;;20.60;49.60;;;;;;4998721;28;89664;-73
2022/03/20 16:13:32;;;;;;;23.50;17.85;;;20.10;50.80;;;;;;4998498;28;89817;-74
2022/03/20 16:15:59;;;;;;;22.92;17.35;;;19.30;51.10;;;;;;4999413;28;89072;-74
2022/03/20 16:18:24;;;;;;;24.15;17.00;;;18.70;52.10;;;;;;4998712;28;89354;-72
2022/03/20 16:20:53;;;;;;;22.17;16.27;;;18.20;52.70;;;;;;4998711;28;89616;-74
2022/03/20 16:28:47;;;;;;;23.27;16.38;;;17.70;54.10;;;;;;4999613;28;89542;-74
2022/03/20 16:31:15;;;;;;;23.10;16.33;;;17.30;54.20;;;;;;4998730;28;89187;-73
2022/03/20 16:33:47;;;;;;;24.02;16.45;;;16.90;54.90;;;;;;4991831;28;92986;-72
2022/03/20 16:36:17;;;;;;;21.17;15.43;;;16.60;55.90;;;;;;4998596;28;89803;-74
2022/03/20 16:38:44;;;;;;;23.88;16.20;;;16.30;56.10;;;;;;4998885;28;89311;-73
2022/03/20 16:41:14;;;;;;;22.35;15.57;;;16.00;57.40;;;;;;4997703;28;89785;-73
2022/03/20 16:43:42;;;;;;;22.33;15.07;;;15.80;57.00;;;;;;4993231;28;89361;-74
2022/03/20 16:46:12;;;;;;;22.92;14.75;;;15.60;57.70;;;;;;4983672;28;89600;-73
2022/03/20 16:48:39;;;;;;;22.63;14.88;;;15.50;58.00;;;;;;4982753;28;90429;-73
2022/03/20 16:51:05;;;;;;;20.98;15.18;;;15.30;59.70;;;;;;4988440;28;90207;-72
2022/03/20 16:53:32;;;;;;;23.15;15.75;;;15.20;59.00;;;;;;4987135;28;90788;-73
2022/03/20 16:56:02;;;;;;;24.88;15.80;;;15.00;60.50;;;;;;4991862;28;90389;-74
2022/03/20 16:58:29;;;;;;;22.65;15.38;;;14.90;60.00;;;;;;5003063;28;89147;-72
2022/03/20 17:00:54;;;;;;;27.73;16.20;;;14.70;60.00;;;;;;5006817;28;92494;-73
2022/03/20 17:03:20;;;;;;;28.38;18.67;;;14.50;61.90;;;;;;4994775;28;89369;-72
2022/03/20 17:05:46;;;;;;;30.20;19.95;;;14.50;60.70;;;;;;4988862;28;90971;-73
2022/03/20 17:08:13;;;;;;;42.53;25.73;;;14.30;61.90;;;;;;4993807;28;89305;-73
2022/03/20 17:10:40;;;;;;;52.58;27.98;;;14.10;62.50;;;;;;4989519;28;89703;-73
2022/03/20 17:13:07;;;;;;;25.80;16.80;;;14.00;63.50;;;;;;4996648;28;90392;-72
2022/03/20 17:15:34;;;;;;;24.50;15.82;;;13.90;63.60;;;;;;4998606;28;90561;-73
2022/03/20 17:18:00;;;;;;;24.77;15.95;;;13.80;63.50;;;;;;4997578;28;89223;-74
2022/03/20 17:20:26;;;;;;;24.77;16.25;;;13.70;63.60;;;;;;4995553;28;89835;-74
2022/03/20 17:22:55;;;;;;;20.75;15.10;;;13.50;64.20;;;;;;4983627;28;89953;-72
2022/03/20 17:25:22;;;;;;;21.77;15.27;;;13.40;64.40;;;;;;4986964;28;91507;-73
2022/03/20 17:27:50;;;;;;;25.60;15.10;;;13.50;63.50;;;;;;4988999;28;89343;-73
2022/03/20 17:30:15;;;;;;;20.08;14.00;;;13.40;63.10;;;;;;4997610;28;89813;-73
2022/03/20 17:32:41;;;;;;;21.20;14.63;;;13.40;63.00;;;;;;4997416;28;89229;-73
2022/03/20 17:35:08;;;;;;;20.20;14.05;;;13.40;63.00;;;;;;4996601;28;89275;-74
2022/03/20 17:37:34;;;;;;;25.98;15.40;;;13.20;63.30;;;;;;4997256;28;90823;-72
2022/03/20 17:40:07;;;;;;;22.58;15.02;;;13.00;64.20;;;;;;4995554;28;90234;-74